Time;durP1;ratioP1;P1;durP2;ratioP2;P2;SDS_P1;SDS_P2;PMS_P1;PMS_P2;Temp;Humidity;BMP_temperature;BMP_pressure;BME280_temperature;BME280_humidity;BME280_pressure;Samples;Min_cycle;Max_cycle;Signal;HPM_P1;HPM_P2
2022/05/20 00:00:06;;;;;;;5.20;3.00;;;;;;;;;;5068409;28;20047;-60
2022/05/20 00:02:34;;;;;;;6.78;3.13;;;;;;;;;;5070318;28;20044;-60
2022/05/20 00:05:00;;;;;;;6.97;2.95;;;;;;;;;;5066344;28;20028;-60
2022/05/20 00:07:26;;;;;;;6.25;2.78;;;;;;;;;;5061626;28;20036;-60
2022/05/20 00:09:52;;;;;;;6.80;2.65;;;;;;;;;;5061518;28;20028;-60
2022/05/20 00:12:19;;;;;;;4.43;3.08;;;;;;;;;;5068219;28;20036;-60
2022/05/20 00:14:45;;;;;;;5.55;3.03;;;;;;;;;;5064442;28;20473;-60
2022/05/20 00:17:10;;;;;;;7.35;3.10;;;;;;;;;;5061185;28;20319;-60
2022/05/20 00:19:36;;;;;;;4.47;3.08;;;;;;;;;;5055412;28;20036;-61
2022/05/20 00:22:02;;;;;;;4.28;2.25;;;;;;;;;;5065946;28;20145;-60
2022/05/20 00:24:28;;;;;;;6.05;3.10;;;;;;;;;;5061183;28;20025;-60
2022/05/20 00:26:56;;;;;;;5.22;2.63;;;;;;;;;;5071059;28;20020;-60
2022/05/20 00:29:23;;;;;;;5.93;2.83;;;;;;;;;;5067577;28;20519;-60
2022/05/20 00:31:48;;;;;;;7.93;2.95;;;;;;;;;;5062783;28;20044;-60
2022/05/20 00:34:14;;;;;;;5.18;2.30;;;;;;;;;;5058608;28;20016;-60
2022/05/20 00:36:40;;;;;;;2.60;2.20;;;;;;;;;;5068713;28;20032;-60
2022/05/20 00:39:05;;;;;;;11.85;3.03;;;;;;;;;;5062095;28;20136;-60
2022/05/20 00:41:31;;;;;;;4.15;2.35;;;;;;;;;;5056242;28;20028;-60
2022/05/20 00:43:58;;;;;;;11.60;3.17;;;;;;;;;;5058994;28;20392;-60
2022/05/20 00:46:25;;;;;;;7.20;3.05;;;;;;;;;;5053490;28;20036;-59
2022/05/20 00:49:13;;;;;;;12.80;3.67;;;;;;;;;;5062081;28;20041;-60
2022/05/20 00:51:52;;;;;;;5.55;3.20;;;;;;;;;;5055822;28;20028;-60
2022/05/20 00:54:23;;;;;;;9.18;2.92;;;;;;;;;;5070988;28;20076;-60
2022/05/20 00:57:03;;;;;;;7.72;2.70;;;;;;;;;;5057619;28;20118;-60
2022/05/20 00:59:32;;;;;;;4.90;2.70;;;;;;;;;;5054444;28;20025;-60
2022/05/20 01:02:05;;;;;;;5.65;2.50;;;;;;;;;;5058117;28;20171;-60
2022/05/20 01:04:31;;;;;;;4.25;2.88;;;;;;;;;;5058624;28;20151;-60
2022/05/20 01:06:57;;;;;;;5.70;2.40;;;;;;;;;;5047016;28;20059;-60
2022/05/20 01:09:23;;;;;;;3.42;2.88;;;;;;;;;;5058641;28;20466;-60
2022/05/20 01:11:49;;;;;;;5.15;2.80;;;;;;;;;;5052126;28;20064;-60
2022/05/20 01:14:23;;;;;;;7.32;2.60;;;;;;;;;;5066744;28;20109;-60
2022/05/20 01:16:49;;;;;;;3.78;2.50;;;;;;;;;;5053780;28;20381;-60
2022/05/20 01:19:28;;;;;;;3.55;2.50;;;;;;;;;;5059872;28;20029;-60
2022/05/20 01:21:53;;;;;;;8.30;2.85;;;;;;;;;;5058244;28;20039;-60
2022/05/20 01:24:19;;;;;;;3.53;2.70;;;;;;;;;;5056418;28;20439;-60
2022/05/20 01:26:45;;;;;;;7.88;2.80;;;;;;;;;;5045189;28;20048;-60
2022/05/20 01:29:10;;;;;;;4.78;2.55;;;;;;;;;;5056377;28;20400;-60
2022/05/20 01:31:36;;;;;;;7.50;2.70;;;;;;;;;;5058311;28;20033;-60
2022/05/20 01:34:02;;;;;;;6.65;2.65;;;;;;;;;;5053508;28;20033;-60
2022/05/20 01:36:28;;;;;;;6.22;2.58;;;;;;;;;;5061894;28;20043;-60
2022/05/20 01:38:55;;;;;;;6.95;3.22;;;;;;;;;;5066024;28;20067;-60
2022/05/20 01:41:27;;;;;;;5.00;2.78;;;;;;;;;;5061023;28;20087;-60
2022/05/20 01:44:18;;;;;;;7.45;2.45;;;;;;;;;;5061450;28;20525;-60
2022/05/20 01:46:54;;;;;;;9.10;2.70;;;;;;;;;;5052783;28;20044;-60
2022/05/20 01:49:41;;;;;;;5.50;2.83;;;;;;;;;;5053589;28;20032;-60
2022/05/20 01:52:44;;;;;;;6.22;2.53;;;;;;;;;;5058291;28;20417;-60
2022/05/20 01:55:23;;;;;;;5.07;2.78;;;;;;;;;;5058109;28;20142;-60
2022/05/20 01:58:00;;;;;;;6.05;3.10;;;;;;;;;;5055643;28;20032;-60
2022/05/20 02:00:31;;;;;;;8.25;2.33;;;;;;;;;;5060175;28;20100;-59
2022/05/20 02:03:04;;;;;;;3.00;2.45;;;;;;;;;;5047758;28;20469;-60
2022/05/20 02:05:43;;;;;;;7.70;2.97;;;;;;;;;;5057760;28;20481;-60
2022/05/20 02:08:14;;;;;;;3.28;2.50;;;;;;;;;;5063693;28;20054;-60
2022/05/20 02:10:47;;;;;;;6.20;2.40;;;;;;;;;;5052503;28;20373;-60
2022/05/20 02:13:16;;;;;;;4.68;2.55;;;;;;;;;;5050205;28;20048;-60
2022/05/20 02:15:49;;;;;;;2.90;2.20;;;;;;;;;;5050526;28;20103;-60
2022/05/20 02:18:31;;;;;;;2.80;2.10;;;;;;;;;;5063597;28;20035;-60
2022/05/20 02:21:03;;;;;;;3.67;2.10;;;;;;;;;;5058271;28;20029;-60
2022/05/20 02:23:38;;;;;;;;;;;;;;;;;;5062124;28;20028;-60
2022/05/20 02:26:09;;;;;;;4.97;2.20;;;;;;;;;;5061322;28;19935;-60
2022/05/20 02:29:01;;;;;;;6.53;2.70;;;;;;;;;;5059408;28;20499;-60
2022/05/20 02:32:16;;;;;;;2.45;2.22;;;;;;;;;;5058013;28;20055;-60
2022/05/20 02:34:42;;;;;;;3.85;2.75;;;;;;;;;;5039542;28;20044;-60
2022/05/20 02:37:20;;;;;;;3.10;2.20;;;;;;;;;;5055060;28;20029;-60
2022/05/20 02:39:46;;;;;;;4.18;2.30;;;;;;;;;;5059905;28;20056;-60
2022/05/20 02:42:12;;;;;;;3.55;2.30;;;;;;;;;;5056497;28;20029;-60
2022/05/20 02:44:38;;;;;;;4.20;2.55;;;;;;;;;;5063798;28;20485;-60
2022/05/20 02:47:04;;;;;;;3.33;2.30;;;;;;;;;;5059750;28;20091;-59
2022/05/20 02:49:30;;;;;;;3.92;2.20;;;;;;;;;;5052061;28;20472;-60
2022/05/20 02:51:56;;;;;;;2.38;1.98;;;;;;;;;;5066860;28;20028;-60
2022/05/20 02:54:21;;;;;;;5.20;2.40;;;;;;;;;;5055520;28;20055;-60
2022/05/20 02:56:47;;;;;;;4.20;2.22;;;;;;;;;;5059282;28;20039;-60
2022/05/20 03:04:45;;;;;;;6.30;2.42;;;;;;;;;;5069136;28;20128;-60
2022/05/20 03:07:10;;;;;;;5.53;2.13;;;;;;;;;;5063123;28;20140;-60
2022/05/20 03:09:36;;;;;;;4.28;2.08;;;;;;;;;;5065373;28;20052;-60
2022/05/20 03:12:02;;;;;;;3.97;2.42;;;;;;;;;;5061956;28;20040;-60
2022/05/20 03:14:28;;;;;;;3.35;2.05;;;;;;;;;;5054118;28;20025;-60
2022/05/20 03:16:59;;;;;;;5.78;2.30;;;;;;;;;;5055704;28;20394;-60
2022/05/20 03:19:30;;;;;;;4.82;2.13;;;;;;;;;;5052542;28;20029;-60
2022/05/20 03:22:00;;;;;;;2.75;2.30;;;;;;;;;;5058962;28;20033;-60
2022/05/20 03:24:27;;;;;;;3.20;2.20;;;;;;;;;;5065370;28;20028;-60
2022/05/20 03:26:52;;;;;;;5.20;2.13;;;;;;;;;;5059355;28;20037;-60
2022/05/20 03:29:18;;;;;;;4.70;2.25;;;;;;;;;;5060068;28;20580;-60
2022/05/20 03:31:45;;;;;;;4.32;2.30;;;;;;;;;;5060504;28;20121;-59
2022/05/20 03:34:11;;;;;;;6.93;2.40;;;;;;;;;;5059950;28;20021;-60
2022/05/20 03:36:39;;;;;;;7.60;2.45;;;;;;;;;;5056480;28;22281;-60
2022/05/20 03:39:06;;;;;;;4.63;2.05;;;;;;;;;;5062467;28;20448;-60
2022/05/20 03:41:33;;;;;;;4.97;2.30;;;;;;;;;;5072568;28;20158;-60
2022/05/20 03:43:59;;;;;;;3.83;2.30;;;;;;;;;;5058264;28;20021;-60
2022/05/20 03:46:25;;;;;;;4.90;2.35;;;;;;;;;;5058740;28;20363;-60
2022/05/20 03:48:51;;;;;;;3.75;2.70;;;;;;;;;;5071526;28;20060;-60
2022/05/20 03:51:17;;;;;;;4.85;2.88;;;;;;;;;;5063196;28;20044;-60
2022/05/20 03:53:42;;;;;;;7.03;2.45;;;;;;;;;;5059614;28;20547;-58
2022/05/20 03:56:09;;;;;;;3.63;2.42;;;;;;;;;;5068021;28;20051;-60
2022/05/20 03:58:36;;;;;;;4.32;2.38;;;;;;;;;;5062707;28;20032;-60
2022/05/20 04:03:47;;;;;;;5.47;2.33;;;;;;;;;;5063336;28;20383;-59
2022/05/20 04:06:13;;;;;;;4.90;2.20;;;;;;;;;;5060928;28;20025;-60
2022/05/20 04:08:40;;;;;;;8.43;2.47;;;;;;;;;;5066377;28;20024;-60
2022/05/20 04:11:11;;;;;;;2.45;2.25;;;;;;;;;;5060266;28;20114;-59
2022/05/20 04:13:42;;;;;;;4.57;2.67;;;;;;;;;;5059804;28;20048;-60
2022/05/20 04:16:09;;;;;;;9.45;2.70;;;;;;;;;;5061650;28;20036;-60
2022/05/20 04:18:35;;;;;;;3.40;2.42;;;;;;;;;;5068999;28;20470;-60
2022/05/20 04:21:01;;;;;;;4.82;2.20;;;;;;;;;;5068826;28;20034;-59
2022/05/20 04:23:27;;;;;;;2.55;2.20;;;;;;;;;;5062988;28;20123;-60
2022/05/20 04:25:53;;;;;;;2.92;2.35;;;;;;;;;;5061806;28;20128;-60
2022/05/20 04:28:18;;;;;;;3.75;2.28;;;;;;;;;;5067370;28;20045;-60
2022/05/20 04:30:44;;;;;;;3.65;2.30;;;;;;;;;;5066031;28;20033;-60
2022/05/20 04:33:10;;;;;;;4.07;2.47;;;;;;;;;;5063721;28;20029;-59
2022/05/20 04:35:36;;;;;;;2.85;2.40;;;;;;;;;;5061475;28;20033;-60
2022/05/20 04:38:02;;;;;;;2.30;2.10;;;;;;;;;;5068286;28;20032;-60
2022/05/20 04:40:28;;;;;;;4.45;2.72;;;;;;;;;;5062389;28;20024;-59
2022/05/20 04:48:24;;;;;;;4.40;3.08;;;;;;;;;;5062677;28;20044;-59
2022/05/20 04:50:50;;;;;;;15.82;2.83;;;;;;;;;;5055576;28;20040;-60
2022/05/20 04:54:49;;;;;;;5.45;2.30;;;;;;;;;;5055315;28;20637;-60
2022/05/20 04:56:02;;;;;;;2.47;2.15;;;;;;;;;;5053793;28;20029;-60
2022/05/20 04:58:28;;;;;;;2.80;2.20;;;;;;;;;;5056288;28;20401;-60
2022/05/20 05:00:58;;;;;;;5.10;2.65;;;;;;;;;;5059771;28;20021;-60
2022/05/20 05:03:24;;;;;;;3.30;2.42;;;;;;;;;;5053538;28;20046;-60
2022/05/20 05:05:49;;;;;;;7.45;2.45;;;;;;;;;;5056127;28;20041;-60
2022/05/20 05:08:16;;;;;;;2.33;2.10;;;;;;;;;;5056601;28;20073;-60
2022/05/20 05:10:43;;;;;;;2.70;2.45;;;;;;;;;;5061268;28;20032;-60
2022/05/20 05:13:09;;;;;;;10.65;2.40;;;;;;;;;;5056810;28;20041;-60
2022/05/20 05:15:36;;;;;;;5.63;1.98;;;;;;;;;;5060819;28;20040;-60
2022/05/20 05:18:16;;;;;;;4.07;2.08;;;;;;;;;;5055563;28;20017;-60
2022/05/20 05:20:48;;;;;;;8.75;2.20;;;;;;;;;;5065394;28;20536;-60
2022/05/20 05:23:15;;;;;;;6.95;2.17;;;;;;;;;;5058357;28;20024;-60
2022/05/20 05:25:41;;;;;;;6.35;2.58;;;;;;;;;;5064655;28;20037;-60
2022/05/20 05:28:07;;;;;;;10.05;2.45;;;;;;;;;;5052569;28;20044;-60
2022/05/20 05:30:33;;;;;;;6.28;2.00;;;;;;;;;;5062415;28;20041;-60
2022/05/20 05:32:59;;;;;;;3.05;2.03;;;;;;;;;;5060002;28;20037;-60
2022/05/20 05:35:27;;;;;;;5.25;2.10;;;;;;;;;;5058871;28;20088;-60
2022/05/20 05:37:53;;;;;;;6.15;2.30;;;;;;;;;;5061839;28;20024;-60
2022/05/20 05:40:25;;;;;;;4.63;2.00;;;;;;;;;;5058654;28;20074;-60
2022/05/20 05:42:51;;;;;;;2.40;2.20;;;;;;;;;;5060822;28;20039;-60
2022/05/20 05:45:20;;;;;;;3.20;2.15;;;;;;;;;;5059186;28;20481;-60
2022/05/20 05:47:50;;;;;;;3.05;2.20;;;;;;;;;;5055233;28;20033;-60
2022/05/20 05:50:15;;;;;;;6.88;2.28;;;;;;;;;;5057177;28;20496;-60
2022/05/20 05:52:41;;;;;;;3.28;2.40;;;;;;;;;;5061474;28;20045;-60
2022/05/20 05:55:07;;;;;;;4.25;2.25;;;;;;;;;;5055860;28;20051;-59
2022/05/20 05:57:33;;;;;;;6.43;2.28;;;;;;;;;;5057529;28;20025;-60
2022/05/20 05:59:58;;;;;;;6.63;2.50;;;;;;;;;;5054871;28;20124;-60
2022/05/20 06:02:24;;;;;;;8.70;2.75;;;;;;;;;;5054548;28;20388;-60
2022/05/20 06:04:51;;;;;;;2.95;2.00;;;;;;;;;;5056074;28;20048;-60
2022/05/20 06:07:18;;;;;;;4.75;2.15;;;;;;;;;;5058116;28;20051;-60
2022/05/20 06:09:45;;;;;;;2.13;1.92;;;;;;;;;;5063194;28;20024;-59
2022/05/20 06:12:12;;;;;;;2.47;2.20;;;;;;;;;;5061673;28;20378;-60
2022/05/20 06:14:38;;;;;;;7.88;2.30;;;;;;;;;;5057829;28;20094;-60
2022/05/20 06:17:04;;;;;;;6.85;2.50;;;;;;;;;;5065930;28;20034;-60
2022/05/20 06:19:30;;;;;;;6.22;2.30;;;;;;;;;;5063047;28;20024;-60
2022/05/20 06:21:55;;;;;;;5.03;2.22;;;;;;;;;;5056947;28;20041;-60
2022/05/20 06:24:21;;;;;;;4.90;2.28;;;;;;;;;;5053493;28;20024;-60
2022/05/20 06:26:47;;;;;;;3.80;1.98;;;;;;;;;;5055229;28;20036;-60
2022/05/20 06:29:13;;;;;;;3.17;2.50;;;;;;;;;;5059033;28;20032;-60
2022/05/20 06:31:38;;;;;;;3.72;1.90;;;;;;;;;;5051738;28;20081;-60
2022/05/20 06:34:04;;;;;;;3.83;1.83;;;;;;;;;;5064510;28;20035;-60
2022/05/20 06:41:58;;;;;;;6.70;2.47;;;;;;;;;;5054188;28;20094;-60
2022/05/20 06:44:24;;;;;;;4.00;2.00;;;;;;;;;;5057133;28;20572;-59
2022/05/20 06:46:51;;;;;;;4.47;2.10;;;;;;;;;;5058544;28;20024;-60
2022/05/20 06:49:17;;;;;;;5.32;2.22;;;;;;;;;;5059110;28;20032;-59
2022/05/20 06:51:43;;;;;;;3.35;2.00;;;;;;;;;;5053591;28;20032;-59
2022/05/20 06:54:11;;;;;;;3.72;2.13;;;;;;;;;;5059835;28;20037;-60
2022/05/20 06:56:37;;;;;;;3.53;2.20;;;;;;;;;;5055398;28;20032;-60
2022/05/20 06:59:05;;;;;;;4.78;2.05;;;;;;;;;;5063180;28;20079;-58
2022/05/20 07:01:32;;;;;;;2.42;2.22;;;;;;;;;;5053837;28;20114;-60
2022/05/20 07:03:58;;;;;;;5.30;2.22;;;;;;;;;;5055711;28;20087;-60
2022/05/20 07:06:25;;;;;;;5.80;2.30;;;;;;;;;;5055612;28;20052;-58
2022/05/20 07:08:51;;;;;;;5.97;2.10;;;;;;;;;;5056960;28;20051;-60
2022/05/20 07:11:20;;;;;;;4.85;2.45;;;;;;;;;;5062604;28;20107;-60
2022/05/20 07:13:47;;;;;;;2.45;2.03;;;;;;;;;;5056258;28;20032;-59
2022/05/20 07:16:13;;;;;;;4.80;2.08;;;;;;;;;;5071051;28;20024;-60
2022/05/20 07:18:39;;;;;;;7.97;2.30;;;;;;;;;;5066480;28;20036;-61
2022/05/20 07:21:06;;;;;;;3.90;2.00;;;;;;;;;;5070830;28;20035;-59
2022/05/20 07:23:33;;;;;;;3.63;2.05;;;;;;;;;;5066433;28;20020;-60
2022/05/20 07:26:00;;;;;;;2.67;1.88;;;;;;;;;;5057314;28;20373;-60
2022/05/20 07:28:28;;;;;;;6.80;2.10;;;;;;;;;;5061817;28;20039;-60
2022/05/20 07:30:53;;;;;;;14.30;2.15;;;;;;;;;;5059461;28;20035;-60
2022/05/20 07:33:20;;;;;;;4.57;1.80;;;;;;;;;;5065642;28;20028;-60
2022/05/20 07:35:45;;;;;;;9.43;2.00;;;;;;;;;;5065875;28;20381;-60
2022/05/20 07:38:11;;;;;;;6.78;2.03;;;;;;;;;;5060280;28;20035;-60
2022/05/20 07:40:37;;;;;;;9.57;2.20;;;;;;;;;;5061488;28;20501;-60
2022/05/20 07:43:03;;;;;;;3.55;2.25;;;;;;;;;;5060865;28;20033;-59
2022/05/20 07:45:29;;;;;;;7.63;2.63;;;;;;;;;;5067954;28;20036;-60
2022/05/20 07:47:55;;;;;;;7.75;2.22;;;;;;;;;;5057378;28;20105;-60
2022/05/20 07:50:20;;;;;;;11.32;2.47;;;;;;;;;;5058928;28;20520;-60
2022/05/20 07:55:39;;;;;;;;;;;;;;;;;;5065057;28;20076;-61
2022/05/20 07:58:09;;;;;;;5.15;2.22;;;;;;;;;;5062740;28;20464;-60
2022/05/20 08:00:35;;;;;;;8.25;2.28;;;;;;;;;;5062068;28;20035;-60
2022/05/20 08:03:02;;;;;;;7.57;2.42;;;;;;;;;;5064445;28;20055;-61
2022/05/20 08:05:30;;;;;;;11.68;2.80;;;;;;;;;;5061452;28;20025;-61
2022/05/20 08:08:00;;;;;;;4.70;2.20;;;;;;;;;;5062251;28;20142;-60
2022/05/20 08:10:29;;;;;;;7.65;2.30;;;;;;;;;;5062977;28;20052;-60
2022/05/20 08:12:55;;;;;;;4.57;2.53;;;;;;;;;;5064429;28;20050;-61
2022/05/20 08:15:20;;;;;;;8.93;2.28;;;;;;;;;;5064232;28;20028;-61
2022/05/20 08:17:46;;;;;;;2.83;2.10;;;;;;;;;;5060166;28;20078;-60
2022/05/20 08:20:21;;;;;;;7.93;2.15;;;;;;;;;;5064068;28;20033;-60
2022/05/20 08:22:46;;;;;;;5.25;2.40;;;;;;;;;;5056043;28;20027;-60
2022/05/20 08:25:12;;;;;;;10.63;2.20;;;;;;;;;;5056553;28;20033;-61
2022/05/20 08:27:38;;;;;;;9.75;2.25;;;;;;;;;;5069363;28;20404;-60
2022/05/20 08:30:14;;;;;;;5.95;2.60;;;;;;;;;;5057236;28;20052;-61
2022/05/20 08:32:40;;;;;;;8.00;2.60;;;;;;;;;;5057192;28;20031;-61
2022/05/20 08:35:06;;;;;;;7.45;2.00;;;;;;;;;;5063501;28;20384;-60
2022/05/20 08:37:36;;;;;;;5.00;2.00;;;;;;;;;;5068408;28;20127;-60
2022/05/20 08:40:03;;;;;;;12.63;2.50;;;;;;;;;;5063716;28;20094;-61
2022/05/20 08:42:31;;;;;;;3.90;2.60;;;;;;;;;;5070506;28;20031;-60
2022/05/20 08:44:58;;;;;;;9.68;2.67;;;;;;;;;;5056685;28;20072;-61
2022/05/20 08:47:46;;;;;;;8.60;2.65;;;;;;;;;;5055955;28;20029;-61
2022/05/20 08:50:23;;;;;;;7.57;2.60;;;;;;;;;;5070706;28;20036;-61
2022/05/20 08:52:50;;;;;;;7.15;2.40;;;;;;;;;;5059966;28;20028;-61
2022/05/20 08:55:16;;;;;;;10.60;2.50;;;;;;;;;;5067218;28;20109;-60
2022/05/20 08:58:02;;;;;;;4.97;2.60;;;;;;;;;;5060484;28;20064;-60
2022/05/20 09:00:29;;;;;;;11.68;3.28;;;;;;;;;;5067847;28;20031;-60
2022/05/20 09:02:55;;;;;;;5.47;2.70;;;;;;;;;;5062776;28;20112;-60
2022/05/20 09:05:24;;;;;;;7.57;2.45;;;;;;;;;;5053608;28;20179;-61
2022/05/20 09:08:19;;;;;;;11.32;2.67;;;;;;;;;;5068604;28;20079;-60
2022/05/20 09:10:57;;;;;;;4.85;2.50;;;;;;;;;;5057296;28;20562;-61
2022/05/20 09:16:24;;;;;;;11.32;2.33;;;;;;;;;;5058420;28;20037;-60
2022/05/20 09:19:05;;;;;;;7.82;2.30;;;;;;;;;;5059405;28;20037;-60
2022/05/20 09:21:38;;;;;;;8.05;2.10;;;;;;;;;;5059595;28;20389;-61
2022/05/20 09:24:25;;;;;;;4.88;2.45;;;;;;;;;;5058660;28;20072;-60
2022/05/20 09:27:05;;;;;;;10.48;2.38;;;;;;;;;;5058611;28;20654;-61
2022/05/20 09:29:45;;;;;;;4.53;2.60;;;;;;;;;;5060274;28;20035;-61
2022/05/20 09:32:38;;;;;;;6.40;2.58;;;;;;;;;;5057117;28;22392;-61
2022/05/20 09:35:06;;;;;;;7.80;2.28;;;;;;;;;;5056582;28;20045;-59
2022/05/20 09:37:34;;;;;;;7.03;2.30;;;;;;;;;;5058615;28;20033;-60
2022/05/20 09:40:21;;;;;;;5.47;2.20;;;;;;;;;;5058636;28;20788;-60
2022/05/20 09:43:06;;;;;;;5.57;2.25;;;;;;;;;;5065809;28;20048;-60
2022/05/20 09:45:42;;;;;;;9.15;2.20;;;;;;;;;;5067475;28;20036;-61
2022/05/20 09:48:08;;;;;;;7.07;2.17;;;;;;;;;;5055911;28;20060;-61
2022/05/20 09:50:38;;;;;;;5.07;2.38;;;;;;;;;;5056890;28;20060;-61
2022/05/20 09:53:16;;;;;;;8.27;2.35;;;;;;;;;;5053262;28;20030;-58
2022/05/20 09:55:44;;;;;;;10.15;2.65;;;;;;;;;;5065836;28;20053;-61
2022/05/20 09:58:19;;;;;;;8.40;2.45;;;;;;;;;;5061221;28;20443;-61
2022/05/20 10:01:23;;;;;;;5.93;2.60;;;;;;;;;;5060019;28;20111;-60
2022/05/20 10:03:56;;;;;;;6.78;2.20;;;;;;;;;;4991973;28;20495;-60
2022/05/20 10:06:35;;;;;;;6.47;1.98;;;;;;;;;;4993730;28;20038;-61
2022/05/20 10:09:39;;;;;;;5.40;2.28;;;;;;;;;;4996818;28;20133;-61
2022/05/20 10:12:11;;;;;;;6.63;2.58;;;;;;;;;;4996012;28;20100;-61
2022/05/20 10:14:59;;;;;;;11.32;2.60;;;;;;;;;;4992688;28;20081;-60
2022/05/20 10:17:44;;;;;;;3.88;2.20;;;;;;;;;;4992520;28;20042;-60
2022/05/20 10:20:24;;;;;;;5.47;2.40;;;;;;;;;;4992450;28;20034;-60
2022/05/20 10:23:09;;;;;;;5.38;2.30;;;;;;;;;;4993298;28;20132;-61
2022/05/20 10:26:06;;;;;;;11.23;2.45;;;;;;;;;;4994486;28;20030;-61
2022/05/20 10:34:37;;;;;;;6.78;1.95;;;;;;;;;;5021769;28;20033;-60
2022/05/20 10:37:24;;;;;;;11.20;2.10;;;;;;;;;;5059364;28;20036;-61
2022/05/20 10:40:11;;;;;;;9.25;2.17;;;;;;;;;;5065562;28;20070;-60
2022/05/20 10:42:46;;;;;;;2.20;1.92;;;;;;;;;;5065306;28;20980;-61
2022/05/20 10:48:37;;;;;;;8.52;2.40;;;;;;;;;;5067987;28;20086;-61
2022/05/20 10:51:29;;;;;;;6.30;2.45;;;;;;;;;;5065917;28;20498;-61
2022/05/20 10:53:55;;;;;;;10.93;2.28;;;;;;;;;;5065599;28;20032;-61
2022/05/20 10:56:42;;;;;;;6.32;2.20;;;;;;;;;;5061448;28;20075;-61
2022/05/20 10:59:23;;;;;;;23.20;3.25;;;;;;;;;;5060881;28;20074;-61
2022/05/20 11:01:58;;;;;;;4.97;2.33;;;;;;;;;;5061228;28;20020;-61
2022/05/20 11:04:45;;;;;;;6.60;1.90;;;;;;;;;;5059936;28;20064;-57
2022/05/20 11:07:41;;;;;;;8.02;2.30;;;;;;;;;;5070286;28;20100;-62
2022/05/20 11:10:31;;;;;;;10.70;2.35;;;;;;;;;;5050139;28;20072;-61
2022/05/20 11:13:35;;;;;;;8.77;1.92;;;;;;;;;;5062775;28;20437;-61
2022/05/20 11:16:19;;;;;;;3.63;2.00;;;;;;;;;;4936598;28;20488;-61
2022/05/20 11:19:10;;;;;;;11.60;2.28;;;;;;;;;;4934619;29;20035;-61
2022/05/20 11:21:45;;;;;;;11.82;2.08;;;;;;;;;;4852115;29;20045;-61
2022/05/20 11:25:01;;;;;;;6.82;2.30;;;;;;;;;;4854528;29;22205;-62
2022/05/20 11:27:57;;;;;;;5.82;2.22;;;;;;;;;;4812519;29;20045;-61
2022/05/20 11:30:26;;;;;;;9.13;2.63;;;;;;;;;;4812448;29;20133;-58
2022/05/20 11:33:28;;;;;;;8.20;2.85;;;;;;;;;;4810262;29;20047;-62
2022/05/20 11:36:06;;;;;;;;;;;;;;;;;;4811748;29;20046;-61
2022/05/20 11:38:49;;;;;;;6.35;2.25;;;;;;;;;;4814468;29;20259;-61
2022/05/20 11:41:57;;;;;;;10.02;2.22;;;;;;;;;;4809230;29;20054;-62
2022/05/20 11:44:48;;;;;;;6.13;2.50;;;;;;;;;;4803452;29;20046;-61
2022/05/20 11:47:34;;;;;;;7.80;2.78;;;;;;;;;;4873410;29;20093;-61
2022/05/20 11:50:27;;;;;;;6.55;2.25;;;;;;;;;;4905465;29;20180;-61
2022/05/20 11:53:01;;;;;;;2.90;1.88;;;;;;;;;;4903371;29;20040;-61
2022/05/20 11:55:51;;;;;;;4.32;2.40;;;;;;;;;;4905954;29;20561;-61
2022/05/20 11:58:35;;;;;;;7.97;2.60;;;;;;;;;;4928448;28;20074;-61
2022/05/20 12:01:06;;;;;;;7.03;2.22;;;;;;;;;;4991695;28;22350;-62
2022/05/20 12:07:11;;;;;;;7.93;2.45;;;;;;;;;;4996387;28;20065;-61
2022/05/20 12:09:45;;;;;;;9.02;2.50;;;;;;;;;;4921979;29;20134;-62
2022/05/20 12:12:15;;;;;;;;;;;;;;;;;;4926214;29;20048;-64
2022/05/20 12:15:03;;;;;;;6.47;2.80;;;;;;;;;;4928087;29;19945;-61
2022/05/20 12:17:47;;;;;;;8.20;2.55;;;;;;;;;;4920131;29;20052;-61
2022/05/20 12:26:22;;;;;;;6.95;2.60;;;;;;;;;;4924715;29;20068;-62
2022/05/20 12:28:48;;;;;;;6.28;2.50;;;;;;;;;;4925187;29;20590;-62
2022/05/20 12:31:20;;;;;;;7.65;2.45;;;;;;;;;;4925678;29;20031;-63
2022/05/20 12:34:05;;;;;;;10.48;2.70;;;;;;;;;;4922356;29;20036;-62
2022/05/20 12:36:31;;;;;;;6.32;2.80;;;;;;;;;;4928997;29;20040;-61
2022/05/20 12:39:09;;;;;;;6.95;2.65;;;;;;;;;;4927282;29;20050;-62
2022/05/20 12:41:59;;;;;;;10.77;2.90;;;;;;;;;;4931299;29;20182;-62
2022/05/20 12:44:25;;;;;;;7.10;2.33;;;;;;;;;;4955086;28;20068;-61
2022/05/20 12:47:03;;;;;;;7.75;2.60;;;;;;;;;;5012855;28;20038;-61
2022/05/20 12:49:46;;;;;;;12.25;2.67;;;;;;;;;;5014013;28;20067;-61
2022/05/20 12:52:15;;;;;;;6.05;2.60;;;;;;;;;;5016917;28;20040;-61
2022/05/20 12:54:43;;;;;;;7.50;2.45;;;;;;;;;;5039615;28;20122;-62
2022/05/20 12:57:16;;;;;;;8.77;2.47;;;;;;;;;;5062311;28;20024;-62
2022/05/20 12:59:42;;;;;;;10.25;2.90;;;;;;;;;;5053365;28;20028;-63
2022/05/20 13:02:14;;;;;;;12.70;2.65;;;;;;;;;;5054379;28;20111;-62
2022/05/20 13:05:13;;;;;;;11.30;3.35;;;;;;;;;;5059434;28;20054;-62
2022/05/20 13:07:42;;;;;;;8.70;2.63;;;;;;;;;;5066234;28;20098;-62
2022/05/20 13:10:23;;;;;;;9.55;2.70;;;;;;;;;;5065997;28;20534;-63
2022/05/20 13:12:52;;;;;;;5.93;2.20;;;;;;;;;;5061278;28;20063;-62
2022/05/20 13:15:22;;;;;;;6.22;2.42;;;;;;;;;;5058958;28;20028;-62
2022/05/20 13:18:08;;;;;;;10.93;2.83;;;;;;;;;;5066823;28;20031;-62
2022/05/20 13:20:36;;;;;;;6.25;3.03;;;;;;;;;;5062402;28;20028;-61
2022/05/20 13:23:05;;;;;;;5.55;2.47;;;;;;;;;;5065236;28;20039;-62
2022/05/20 13:25:31;;;;;;;12.65;2.58;;;;;;;;;;5057527;28;20443;-62
2022/05/20 13:27:59;;;;;;;5.15;2.60;;;;;;;;;;5057094;28;20041;-62
2022/05/20 13:30:30;;;;;;;10.05;2.72;;;;;;;;;;5061193;28;20508;-62
2022/05/20 13:33:09;;;;;;;7.00;2.53;;;;;;;;;;5057035;28;20070;-62
2022/05/20 13:36:06;;;;;;;7.40;2.75;;;;;;;;;;5055392;28;20510;-62
2022/05/20 13:38:39;;;;;;;9.95;2.55;;;;;;;;;;5038276;28;20059;-63
2022/05/20 13:41:08;;;;;;;6.93;2.80;;;;;;;;;;5056096;28;20111;-61
2022/05/20 13:43:37;;;;;;;6.80;3.03;;;;;;;;;;5044515;28;20024;-62
2022/05/20 13:49:12;;;;;;;6.40;2.85;;;;;;;;;;5060251;28;20040;-63
2022/05/20 13:51:50;;;;;;;4.00;2.40;;;;;;;;;;5061447;28;20031;-62
2022/05/20 13:54:30;;;;;;;5.97;2.45;;;;;;;;;;5062821;28;20040;-62
2022/05/20 13:56:57;;;;;;;4.97;2.10;;;;;;;;;;5061738;28;20032;-62
2022/05/20 13:59:35;;;;;;;7.65;2.67;;;;;;;;;;5053459;28;20028;-62
2022/05/20 14:02:08;;;;;;;5.95;2.38;;;;;;;;;;5062632;28;20113;-62
2022/05/20 14:04:44;;;;;;;11.27;2.55;;;;;;;;;;5056007;28;20306;-62
2022/05/20 14:07:16;;;;;;;8.80;2.40;;;;;;;;;;5059513;28;20048;-62
2022/05/20 14:09:50;;;;;;;9.48;2.90;;;;;;;;;;5065753;28;20067;-62
2022/05/20 14:12:20;;;;;;;8.68;2.80;;;;;;;;;;5052977;28;20036;-62
2022/05/20 14:14:54;;;;;;;5.40;2.38;;;;;;;;;;5047802;28;20632;-62
2022/05/20 14:17:20;;;;;;;7.70;2.65;;;;;;;;;;5051731;28;20523;-62
2022/05/20 14:19:48;;;;;;;13.40;2.45;;;;;;;;;;5058400;28;20045;-62
2022/05/20 14:22:27;;;;;;;6.30;2.47;;;;;;;;;;5053570;28;20024;-62
2022/05/20 14:25:18;;;;;;;8.98;2.75;;;;;;;;;;5051799;28;20392;-62
2022/05/20 14:27:47;;;;;;;6.55;2.35;;;;;;;;;;5068419;28;20025;-60
2022/05/20 14:30:41;;;;;;;4.03;2.20;;;;;;;;;;5061539;28;20388;-62
2022/05/20 14:33:18;;;;;;;8.98;2.60;;;;;;;;;;5060292;28;20037;-61
2022/05/20 14:35:48;;;;;;;7.47;2.17;;;;;;;;;;5062652;28;20035;-60
2022/05/20 14:38:18;;;;;;;5.60;2.40;;;;;;;;;;5061494;28;20031;-61
2022/05/20 14:40:44;;;;;;;7.97;2.10;;;;;;;;;;5055814;28;20067;-61
2022/05/20 14:43:21;;;;;;;3.00;2.00;;;;;;;;;;5062769;28;20060;-61
2022/05/20 14:45:57;;;;;;;5.15;1.95;;;;;;;;;;5053859;28;20090;-61
2022/05/20 14:48:28;;;;;;;6.93;2.35;;;;;;;;;;5066827;28;20048;-61
2022/05/20 14:50:55;;;;;;;4.30;2.00;;;;;;;;;;5057694;28;20049;-61
2022/05/20 14:53:50;;;;;;;6.90;2.13;;;;;;;;;;5059152;28;20045;-61
2022/05/20 14:56:37;;;;;;;7.35;2.53;;;;;;;;;;5064223;28;20170;-62
2022/05/20 14:59:04;;;;;;;8.70;1.80;;;;;;;;;;5067442;28;20426;-62
2022/05/20 15:01:33;;;;;;;9.18;2.05;;;;;;;;;;5061905;28;20129;-62
2022/05/20 15:03:59;;;;;;;5.32;1.95;;;;;;;;;;5065708;28;22058;-61
2022/05/20 15:06:33;;;;;;;10.50;2.83;;;;;;;;;;5059052;28;20147;-61
2022/05/20 15:08:59;;;;;;;9.57;2.15;;;;;;;;;;5060471;28;20025;-61
2022/05/20 15:11:34;;;;;;;6.85;2.35;;;;;;;;;;5054581;28;20033;-61
2022/05/20 15:14:00;;;;;;;3.17;1.98;;;;;;;;;;5063446;28;20029;-61
2022/05/20 15:16:27;;;;;;;3.92;2.30;;;;;;;;;;5049242;28;20489;-62
2022/05/20 15:18:53;;;;;;;2.42;1.80;;;;;;;;;;5057997;28;20029;-61
2022/05/20 15:21:27;;;;;;;13.25;1.90;;;;;;;;;;5063846;28;20033;-61
2022/05/20 15:24:14;;;;;;;6.57;2.00;;;;;;;;;;5058753;28;20060;-61
2022/05/20 15:26:40;;;;;;;5.72;2.80;;;;;;;;;;5045792;28;20043;-61
2022/05/20 15:29:07;;;;;;;4.10;1.95;;;;;;;;;;5052249;28;20029;-61
2022/05/20 15:37:14;;;;;;;3.70;1.98;;;;;;;;;;5060539;28;20045;-61
2022/05/20 15:39:46;;;;;;;6.75;1.80;;;;;;;;;;5060594;28;20123;-61
2022/05/20 15:42:13;;;;;;;4.82;2.13;;;;;;;;;;5058608;28;20399;-61
2022/05/20 15:44:40;;;;;;;3.40;1.92;;;;;;;;;;5052325;28;20473;-61
2022/05/20 15:47:08;;;;;;;2.50;1.90;;;;;;;;;;5063947;28;20032;-61
2022/05/20 15:49:34;;;;;;;4.47;1.95;;;;;;;;;;5063871;28;20036;-61
2022/05/20 15:52:01;;;;;;;4.82;2.20;;;;;;;;;;5065734;28;20641;-61
2022/05/20 15:54:28;;;;;;;3.58;1.83;;;;;;;;;;5063186;28;20093;-61
2022/05/20 15:56:55;;;;;;;4.93;2.10;;;;;;;;;;5063887;28;20036;-61
2022/05/20 15:59:25;;;;;;;4.70;1.80;;;;;;;;;;5060117;28;20033;-61
2022/05/20 16:01:50;;;;;;;5.65;1.90;;;;;;;;;;5060663;28;20043;-61
2022/05/20 16:04:16;;;;;;;7.70;2.15;;;;;;;;;;5068522;28;20099;-61